Time;durP1;ratioP1;P1;durP2;ratioP2;P2;SDS_P1;SDS_P2;PMS_P1;PMS_P2;Temp;Humidity;BMP_temperature;BMP_pressure;BME280_temperature;BME280_humidity;BME280_pressure;Samples;Min_cycle;Max_cycle;Signal;HPM_P1;HPM_P2
2024/02/19 00:00:02;;;;;;;1.48;1.10;;;11.20;99.90;;;;;;10068328;28;20064;-72
2024/02/19 00:04:53;;;;;;;2.42;0.90;;;11.20;99.90;;;;;;10098660;28;20124;-71
2024/02/19 00:09:44;;;;;;;2.35;1.27;;;11.20;99.90;;;;;;10098227;28;20442;-71
2024/02/19 00:14:35;;;;;;;1.17;0.82;;;11.20;99.90;;;;;;10098806;28;20029;-71
2024/02/19 00:19:25;;;;;;;1.20;0.77;;;11.20;99.90;;;;;;10098895;28;20136;-72
2024/02/19 00:24:17;;;;;;;2.13;1.00;;;11.30;99.90;;;;;;10097573;28;20033;-71
2024/02/19 00:29:08;;;;;;;1.70;1.25;;;11.30;99.90;;;;;;10099917;28;20063;-71
2024/02/19 00:33:59;;;;;;;1.75;0.90;;;11.30;99.90;;;;;;10097650;28;20109;-72
2024/02/19 00:38:54;;;;;;;1.63;0.93;;;11.20;99.90;;;;;;10098440;28;20044;-72
2024/02/19 00:43:45;;;;;;;1.45;0.80;;;11.20;99.90;;;;;;10104780;28;20019;-71
2024/02/19 00:48:41;;;;;;;1.05;0.65;;;11.30;99.90;;;;;;10098250;28;20037;-72
2024/02/19 00:53:33;;;;;;;1.38;0.75;;;11.30;99.90;;;;;;10079627;28;20032;-74
2024/02/19 00:58:26;;;;;;;1.45;0.88;;;11.40;99.90;;;;;;10077752;28;20075;-71
2024/02/19 01:03:16;;;;;;;2.85;1.20;;;11.30;99.90;;;;;;10096040;28;20490;-71
2024/02/19 01:08:07;;;;;;;2.13;0.70;;;11.30;99.90;;;;;;10096448;28;20016;-71
2024/02/19 01:12:58;;;;;;;1.17;0.63;;;11.30;99.90;;;;;;10095920;28;20628;-71
2024/02/19 01:17:49;;;;;;;1.30;0.75;;;11.30;99.90;;;;;;10095818;28;20037;-72
2024/02/19 01:22:39;;;;;;;1.92;0.80;;;11.40;99.90;;;;;;10093780;28;20029;-72
2024/02/19 01:27:30;;;;;;;1.90;0.70;;;11.40;99.90;;;;;;10101798;28;20495;-72
2024/02/19 01:32:22;;;;;;;0.80;0.68;;;11.40;99.90;;;;;;10095618;28;20039;-72
2024/02/19 01:37:12;;;;;;;1.20;0.57;;;11.40;99.90;;;;;;10095513;28;20541;-71
2024/02/19 01:42:03;;;;;;;1.45;0.80;;;11.40;99.90;;;;;;10097653;28;20066;-72
2024/02/19 01:46:55;;;;;;;1.00;0.60;;;11.40;99.90;;;;;;10096117;28;20025;-71
2024/02/19 01:51:46;;;;;;;1.50;0.70;;;11.40;99.90;;;;;;10095078;28;20531;-71
2024/02/19 01:56:38;;;;;;;3.60;0.90;;;11.40;99.90;;;;;;10095826;28;20615;-72
2024/02/19 02:01:29;;;;;;;1.05;0.60;;;11.40;99.90;;;;;;10093737;28;20111;-72
2024/02/19 02:06:19;;;;;;;1.27;0.93;;;11.40;99.90;;;;;;10096425;28;20116;-71
2024/02/19 02:11:10;;;;;;;0.93;0.80;;;11.40;99.90;;;;;;10104455;28;20017;-73
2024/02/19 02:16:02;;;;;;;1.42;0.93;;;11.30;99.90;;;;;;10102801;28;20037;-73
2024/02/19 02:20:53;;;;;;;1.15;0.73;;;11.20;99.90;;;;;;10102657;28;20063;-72
2024/02/19 02:25:47;;;;;;;0.80;0.70;;;11.30;99.90;;;;;;10104404;28;20048;-71
2024/02/19 02:30:38;;;;;;;0.90;0.75;;;11.30;99.90;;;;;;10101758;28;20025;-71
2024/02/19 02:35:29;;;;;;;1.70;0.77;;;11.40;99.90;;;;;;10102281;28;20037;-71
2024/02/19 02:40:19;;;;;;;1.20;0.77;;;11.40;99.90;;;;;;10101260;28;20029;-71
2024/02/19 02:45:10;;;;;;;1.13;0.70;;;11.40;99.90;;;;;;10101472;28;20041;-72
2024/02/19 02:50:01;;;;;;;1.30;0.60;;;11.40;99.90;;;;;;10102612;28;20083;-71
2024/02/19 02:54:52;;;;;;;0.82;0.60;;;11.30;99.90;;;;;;10100073;28;20033;-72
2024/02/19 02:59:46;;;;;;;1.05;0.60;;;11.30;99.90;;;;;;10100624;28;20584;-72
2024/02/19 03:04:36;;;;;;;0.70;0.60;;;11.40;99.90;;;;;;10084116;28;20029;-72
2024/02/19 03:09:27;;;;;;;0.95;0.70;;;11.40;99.90;;;;;;10100355;28;20047;-72
2024/02/19 03:14:17;;;;;;;1.10;0.80;;;11.40;99.90;;;;;;10096515;28;20040;-71
2024/02/19 03:19:09;;;;;;;0.68;0.68;;;11.40;99.90;;;;;;10099537;28;20045;-71
2024/02/19 03:24:00;;;;;;;2.70;0.63;;;11.30;99.90;;;;;;10100374;28;20030;-72
2024/02/19 03:28:51;;;;;;;1.20;0.60;;;11.30;99.90;;;;;;10100236;28;20052;-71
2024/02/19 03:33:42;;;;;;;0.82;0.60;;;11.30;99.90;;;;;;10100060;28;20111;-72
2024/02/19 03:38:33;;;;;;;0.52;0.50;;;11.20;99.90;;;;;;10082012;28;20115;-72
2024/02/19 03:43:25;;;;;;;0.73;0.63;;;11.20;99.90;;;;;;10098403;28;20088;-71
2024/02/19 03:48:16;;;;;;;0.98;0.52;;;11.20;99.90;;;;;;10104445;28;20124;-71
2024/02/19 03:53:08;;;;;;;1.40;0.50;;;11.20;99.90;;;;;;10099853;28;20049;-71
2024/02/19 03:57:59;;;;;;;1.02;0.60;;;11.20;99.90;;;;;;10098826;28;20134;-73
2024/02/19 04:02:50;;;;;;;0.55;0.38;;;11.30;99.90;;;;;;10096517;28;20639;-71
2024/02/19 04:07:41;;;;;;;0.73;0.47;;;11.20;99.90;;;;;;10095799;28;20108;-70
2024/02/19 04:12:32;;;;;;;0.93;0.45;;;11.10;99.90;;;;;;10079389;28;20286;-69
2024/02/19 04:17:26;;;;;;;0.50;0.45;;;11.20;99.90;;;;;;10098730;28;20049;-69
2024/02/19 04:22:17;;;;;;;1.13;0.50;;;11.20;99.90;;;;;;10069941;28;20029;-69
2024/02/19 04:27:08;;;;;;;0.57;0.47;;;11.20;99.90;;;;;;10082466;28;20056;-70
2024/02/19 04:31:59;;;;;;;0.93;0.43;;;11.20;99.90;;;;;;10105241;28;20510;-71
2024/02/19 04:36:50;;;;;;;0.57;0.47;;;11.20;99.90;;;;;;10103146;28;20055;-71
2024/02/19 04:41:41;;;;;;;0.73;0.55;;;11.20;99.90;;;;;;10100103;28;20354;-73
2024/02/19 04:46:33;;;;;;;1.45;0.70;;;11.30;99.90;;;;;;10101318;28;20021;-71
2024/02/19 04:51:28;;;;;;;1.05;0.73;;;11.30;99.90;;;;;;10104003;28;20029;-70
2024/02/19 04:56:18;;;;;;;2.28;0.80;;;11.40;99.90;;;;;;10088442;28;20052;-71
2024/02/19 05:01:09;;;;;;;1.40;0.70;;;11.40;99.90;;;;;;10108556;28;20055;-72
2024/02/19 05:05:59;;;;;;;2.08;0.88;;;11.40;99.90;;;;;;10094184;28;20093;-71
2024/02/19 05:10:50;;;;;;;1.33;0.85;;;11.30;99.90;;;;;;10108769;28;20014;-71
2024/02/19 05:15:42;;;;;;;1.80;0.98;;;11.40;99.90;;;;;;10112092;28;20105;-69
2024/02/19 05:20:35;;;;;;;1.88;1.10;;;11.50;99.90;;;;;;10108397;28;20047;-70
2024/02/19 05:25:25;;;;;;;3.15;2.03;;;11.50;99.90;;;;;;10094260;28;20040;-71
2024/02/19 05:30:16;;;;;;;2.20;1.55;;;11.50;99.90;;;;;;10088886;28;20116;-72
2024/02/19 05:35:08;;;;;;;6.35;1.73;;;11.50;99.90;;;;;;10098618;28;20052;-71
2024/02/19 05:39:59;;;;;;;4.43;1.50;;;11.50;99.90;;;;;;10106549;28;20028;-71
2024/02/19 05:44:50;;;;;;;3.38;1.67;;;11.50;99.90;;;;;;10122384;28;20083;-70
2024/02/19 05:49:41;;;;;;;3.30;2.13;;;11.50;99.90;;;;;;10109408;28;20232;-70
2024/02/19 05:54:32;;;;;;;3.10;1.70;;;11.50;99.90;;;;;;10124713;28;20058;-69
2024/02/19 05:59:22;;;;;;;2.22;1.60;;;11.40;99.90;;;;;;10099798;28;20041;-71
2024/02/19 06:04:13;;;;;;;4.00;1.55;;;11.40;99.90;;;;;;10118826;28;20017;-71
2024/02/19 06:09:04;;;;;;;1.63;1.25;;;11.50;99.90;;;;;;10128112;28;20013;-73
2024/02/19 06:13:55;;;;;;;4.47;1.40;;;11.40;99.90;;;;;;10125618;28;20115;-71
2024/02/19 06:18:45;;;;;;;2.75;1.40;;;11.40;99.90;;;;;;10125264;28;20039;-70
2024/02/19 06:23:36;;;;;;;2.08;1.27;;;11.40;99.90;;;;;;10124495;28;20307;-71
2024/02/19 06:28:28;;;;;;;2.97;0.88;;;11.50;99.90;;;;;;10125775;28;20403;-70
2024/02/19 06:33:18;;;;;;;1.77;1.10;;;11.40;99.90;;;;;;10104663;28;20521;-70
2024/02/19 06:38:09;;;;;;;4.03;1.20;;;11.40;99.90;;;;;;10125922;28;20033;-71
2024/02/19 06:43:01;;;;;;;2.88;1.45;;;11.40;99.90;;;;;;10127655;28;20100;-70
2024/02/19 06:47:57;;;;;;;3.38;1.20;;;11.40;99.90;;;;;;10126397;28;20017;-70
2024/02/19 06:52:47;;;;;;;1.25;0.88;;;11.40;99.90;;;;;;10118162;28;20732;-71
2024/02/19 06:57:38;;;;;;;1.90;1.10;;;11.40;99.90;;;;;;10118871;28;20045;-72
2024/02/19 07:02:29;;;;;;;1.83;1.60;;;11.40;99.90;;;;;;10117929;28;20025;-71
2024/02/19 07:07:19;;;;;;;1.50;1.10;;;11.30;99.90;;;;;;10117746;28;20021;-73
2024/02/19 07:12:12;;;;;;;1.55;1.10;;;11.30;99.90;;;;;;10122640;28;20025;-72
2024/02/19 07:17:02;;;;;;;4.93;1.25;;;11.40;99.90;;;;;;10122199;28;20044;-71
2024/02/19 07:21:53;;;;;;;1.58;0.93;;;11.40;99.90;;;;;;10104518;28;20059;-71
2024/02/19 07:26:44;;;;;;;3.45;1.35;;;11.40;99.90;;;;;;10122022;28;20064;-69
2024/02/19 07:31:36;;;;;;;5.78;1.63;;;11.50;99.90;;;;;;10120106;28;20274;-73
2024/02/19 07:36:26;;;;;;;6.68;1.40;;;11.50;99.90;;;;;;10104125;28;20131;-72
2024/02/19 07:41:18;;;;;;;3.22;1.20;;;11.50;99.90;;;;;;10115985;28;20378;-72
2024/02/19 07:46:09;;;;;;;3.78;1.67;;;11.50;99.90;;;;;;10107586;28;20039;-71
2024/02/19 07:51:00;;;;;;;3.33;1.25;;;11.50;99.90;;;;;;10085079;28;20403;-73
2024/02/19 07:56:01;;;;;;;1.77;1.35;;;11.50;99.90;;;;;;10091767;28;20033;-70
2024/02/19 08:00:51;;;;;;;4.45;2.40;;;11.50;99.90;;;;;;10104730;28;20025;-70
2024/02/19 08:05:44;;;;;;;4.05;1.50;;;11.50;99.90;;;;;;10094080;28;20029;-72
2024/02/19 08:10:35;;;;;;;3.00;1.45;;;11.60;99.90;;;;;;10073969;28;20064;-71
2024/02/19 08:15:29;;;;;;;3.47;1.67;;;11.60;99.90;;;;;;10096933;28;20056;-71
2024/02/19 08:20:21;;;;;;;3.78;1.60;;;11.60;99.90;;;;;;10078276;28;20075;-70
2024/02/19 08:25:12;;;;;;;2.83;1.50;;;11.60;99.90;;;;;;10087202;28;20029;-72
2024/02/19 08:30:03;;;;;;;3.17;1.98;;;11.70;99.90;;;;;;10091162;28;20049;-71
2024/02/19 08:34:54;;;;;;;4.13;1.95;;;11.60;99.90;;;;;;10091860;28;20013;-71
2024/02/19 08:39:46;;;;;;;3.05;1.40;;;11.70;99.90;;;;;;10114691;28;20040;-73
2024/02/19 08:44:37;;;;;;;3.88;1.95;;;11.70;99.90;;;;;;10101911;28;20029;-70
2024/02/19 08:49:28;;;;;;;4.82;1.60;;;11.70;99.90;;;;;;10094650;28;20021;-70
2024/02/19 08:54:19;;;;;;;3.85;1.75;;;11.80;99.90;;;;;;10101084;28;20029;-68
2024/02/19 08:59:10;;;;;;;3.92;1.83;;;11.80;99.90;;;;;;10100479;28;20111;-69
2024/02/19 09:04:00;;;;;;;4.65;2.28;;;11.80;99.90;;;;;;10095317;28;20064;-70
2024/02/19 09:08:51;;;;;;;5.35;2.63;;;11.80;99.90;;;;;;10090444;28;20040;-69
2024/02/19 09:13:42;;;;;;;3.65;2.20;;;11.90;99.90;;;;;;10095582;28;20515;-69
2024/02/19 09:18:33;;;;;;;4.68;1.80;;;11.90;99.90;;;;;;10072761;28;20037;-70
2024/02/19 09:23:24;;;;;;;3.80;2.58;;;11.80;99.90;;;;;;10094802;28;20025;-70
2024/02/19 09:28:14;;;;;;;5.28;2.58;;;11.90;99.90;;;;;;10048070;28;20069;-71
2024/02/19 09:33:06;;;;;;;3.83;1.95;;;11.90;99.90;;;;;;10055378;28;20443;-70
2024/02/19 09:37:57;;;;;;;2.92;1.73;;;12.00;99.90;;;;;;10058642;28;20076;-70
2024/02/19 09:42:48;;;;;;;4.35;2.35;;;12.00;99.90;;;;;;10054903;28;20025;-70
2024/02/19 09:47:44;;;;;;;4.80;1.55;;;12.10;99.90;;;;;;10048073;28;20422;-71
2024/02/19 09:52:35;;;;;;;;;;;12.10;99.90;;;;;;10064670;28;20021;-71
2024/02/19 09:57:28;;;;;;;4.68;1.75;;;12.20;99.90;;;;;;10057290;28;19921;-70
2024/02/19 10:02:19;;;;;;;4.53;2.40;;;12.20;99.90;;;;;;10054811;28;20032;-71
2024/02/19 10:07:10;;;;;;;4.45;1.98;;;12.20;99.90;;;;;;10060702;28;20025;-72
2024/02/19 10:12:02;;;;;;;4.43;1.90;;;12.20;99.90;;;;;;10056862;28;20037;-71
2024/02/19 10:16:53;;;;;;;3.35;2.10;;;12.30;99.90;;;;;;10048866;28;20053;-70
2024/02/19 10:21:50;;;;;;;6.90;2.20;;;12.30;99.90;;;;;;10055964;28;20467;-69
2024/02/19 10:26:41;;;;;;;3.20;1.80;;;12.40;99.90;;;;;;10061964;28;20052;-70
2024/02/19 10:31:32;;;;;;;3.78;1.63;;;12.30;99.90;;;;;;10102190;28;20026;-70
2024/02/19 10:36:24;;;;;;;4.85;1.80;;;12.30;99.90;;;;;;10108758;28;20072;-71
2024/02/19 10:41:16;;;;;;;3.25;1.70;;;12.40;99.90;;;;;;10103776;28;20031;-71
2024/02/19 10:46:07;;;;;;;3.85;2.35;;;12.40;99.90;;;;;;10106991;28;20040;-69
2024/02/19 10:51:03;;;;;;;4.80;1.98;;;12.40;99.90;;;;;;10109639;28;20025;-71
2024/02/19 10:56:19;;;;;;;3.00;1.58;;;12.50;99.90;;;;;;10103971;28;20044;-71
2024/02/19 11:01:10;;;;;;;2.58;1.50;;;12.50;99.90;;;;;;10097579;28;20040;-71
2024/02/19 11:06:03;;;;;;;2.63;1.60;;;12.50;99.90;;;;;;10094964;28;20040;-71
2024/02/19 11:10:55;;;;;;;5.57;1.73;;;12.50;99.90;;;;;;10102159;28;20087;-70
2024/02/19 11:15:46;;;;;;;2.38;1.58;;;12.50;99.90;;;;;;10102026;28;20040;-71
2024/02/19 11:20:37;;;;;;;5.82;2.03;;;12.60;99.90;;;;;;10099523;28;20021;-71
2024/02/19 11:25:28;;;;;;;6.60;2.88;;;12.60;99.90;;;;;;10100088;28;20479;-69
2024/02/19 11:30:19;;;;;;;2.15;1.23;;;12.50;99.90;;;;;;10099397;28;20040;-70
2024/02/19 11:35:14;;;;;;;4.57;1.52;;;12.50;99.90;;;;;;10098840;28;20033;-69
2024/02/19 11:40:05;;;;;;;7.25;1.88;;;12.60;99.90;;;;;;10095874;28;20610;-70
2024/02/19 11:45:00;;;;;;;3.90;1.58;;;12.60;99.90;;;;;;10101686;28;20036;-68
2024/02/19 11:49:52;;;;;;;2.70;1.60;;;12.70;99.90;;;;;;10096403;28;20036;-70
2024/02/19 11:54:43;;;;;;;2.85;1.60;;;12.70;99.90;;;;;;10098039;28;20079;-70
2024/02/19 11:59:37;;;;;;;2.72;1.38;;;12.70;99.90;;;;;;10081728;28;20509;-71
2024/02/19 12:04:28;;;;;;;4.05;1.63;;;12.70;99.90;;;;;;10096578;28;20032;-71
2024/02/19 12:09:19;;;;;;;4.32;1.67;;;12.70;99.90;;;;;;10088627;28;20025;-71
2024/02/19 12:14:12;;;;;;;3.42;1.80;;;12.70;99.90;;;;;;10090017;28;20112;-70
2024/02/19 12:19:02;;;;;;;2.40;1.80;;;12.70;99.90;;;;;;10091202;28;20044;-70
2024/02/19 12:23:54;;;;;;;4.82;2.50;;;12.70;99.90;;;;;;10097318;28;20525;-71
2024/02/19 12:28:44;;;;;;;3.97;1.90;;;12.70;99.90;;;;;;10089590;28;20052;-70
2024/02/19 12:33:37;;;;;;;5.53;2.17;;;12.70;99.90;;;;;;10093147;28;20025;-69
2024/02/19 12:38:28;;;;;;;2.58;1.58;;;12.70;99.90;;;;;;10096198;28;20076;-69
2024/02/19 12:43:19;;;;;;;3.30;1.70;;;12.70;99.90;;;;;;10100792;28;20033;-70
2024/02/19 12:48:10;;;;;;;3.90;1.60;;;12.80;99.90;;;;;;10090991;28;20052;-70
2024/02/19 12:53:00;;;;;;;3.28;1.73;;;12.90;99.90;;;;;;10097255;28;20103;-69
2024/02/19 12:57:51;;;;;;;3.70;1.77;;;13.10;99.90;;;;;;10100747;28;20090;-70
2024/02/19 13:02:43;;;;;;;2.22;1.27;;;13.10;99.90;;;;;;10096145;28;20090;-69
2024/02/19 13:07:35;;;;;;;4.45;1.67;;;13.20;99.90;;;;;;10094037;28;20448;-69
2024/02/19 13:12:25;;;;;;;5.28;2.20;;;13.20;99.90;;;;;;10096459;28;20059;-70
2024/02/19 13:17:18;;;;;;;3.30;1.67;;;13.20;99.90;;;;;;10077577;28;20051;-68
2024/02/19 13:22:09;;;;;;;4.07;1.77;;;13.30;99.90;;;;;;10095350;28;20021;-69
2024/02/19 13:26:59;;;;;;;2.30;1.58;;;13.30;99.90;;;;;;10094866;28;20123;-69
2024/02/19 13:31:50;;;;;;;3.53;1.23;;;13.40;99.90;;;;;;10095628;28;20028;-70
2024/02/19 13:36:40;;;;;;;2.85;1.38;;;13.30;99.90;;;;;;10095369;28;20063;-68
2024/02/19 13:41:31;;;;;;;3.38;1.63;;;13.50;99.90;;;;;;10094866;28;20495;-68
2024/02/19 13:46:22;;;;;;;2.05;1.30;;;13.70;99.90;;;;;;10087288;28;20858;-68
2024/02/19 13:51:12;;;;;;;4.00;1.52;;;13.60;99.90;;;;;;10086990;28;20556;-68
2024/02/19 13:56:03;;;;;;;3.00;1.40;;;13.50;99.90;;;;;;10095625;28;20033;-68
2024/02/19 14:00:56;;;;;;;3.22;1.25;;;13.30;99.90;;;;;;10094560;28;20028;-69
2024/02/19 14:05:50;;;;;;;3.75;1.27;;;13.30;99.90;;;;;;10098556;28;20052;-68
2024/02/19 14:10:41;;;;;;;4.22;1.55;;;13.20;99.90;;;;;;10083181;28;20080;-72
2024/02/19 14:15:31;;;;;;;3.15;1.58;;;13.30;99.90;;;;;;10100503;28;20764;-72
2024/02/19 14:20:22;;;;;;;2.25;1.27;;;13.20;99.90;;;;;;10102385;28;20028;-69
2024/02/19 14:25:14;;;;;;;4.07;1.85;;;13.30;99.90;;;;;;10103195;28;20025;-67
2024/02/19 14:30:08;;;;;;;4.30;1.38;;;13.30;99.90;;;;;;10102112;28;20044;-70
2024/02/19 14:34:59;;;;;;;5.38;1.35;;;13.20;99.90;;;;;;10110701;28;20017;-69
2024/02/19 14:39:49;;;;;;;3.55;1.77;;;13.20;99.90;;;;;;10100006;28;20041;-73
2024/02/19 14:44:41;;;;;;;4.50;1.52;;;13.30;99.90;;;;;;10083130;28;20392;-71
2024/02/19 14:49:32;;;;;;;4.82;1.92;;;13.30;99.90;;;;;;10102087;28;20045;-71
2024/02/19 14:54:22;;;;;;;3.10;1.60;;;13.30;99.90;;;;;;10101452;28;20052;-69
2024/02/19 14:59:13;;;;;;;4.95;1.25;;;13.30;99.90;;;;;;10101210;28;20040;-68
2024/02/19 15:04:05;;;;;;;3.85;1.23;;;13.30;99.90;;;;;;10111330;28;20019;-68
2024/02/19 15:08:55;;;;;;;5.55;1.40;;;13.30;99.90;;;;;;10082610;28;20037;-67
2024/02/19 15:13:46;;;;;;;5.55;1.20;;;13.20;99.90;;;;;;10099851;28;20025;-67
2024/02/19 15:18:38;;;;;;;2.53;1.23;;;13.20;99.90;;;;;;10096246;28;20048;-67
2024/02/19 15:23:28;;;;;;;3.58;1.20;;;13.20;99.90;;;;;;10100719;28;20017;-71
2024/02/19 15:28:19;;;;;;;2.70;1.20;;;13.20;99.90;;;;;;10098651;28;20079;-72
2024/02/19 15:33:11;;;;;;;2.88;1.30;;;13.20;99.90;;;;;;10102533;28;20017;-71
2024/02/19 15:38:01;;;;;;;2.47;1.10;;;13.30;99.90;;;;;;10081408;28;20037;-72
2024/02/19 15:42:52;;;;;;;5.63;1.13;;;13.30;99.90;;;;;;10078983;28;20037;-71
2024/02/19 15:47:43;;;;;;;4.20;1.60;;;13.20;99.90;;;;;;10093297;28;20032;-72
2024/02/19 15:52:35;;;;;;;3.90;1.50;;;13.20;99.90;;;;;;10079555;28;20021;-69
2024/02/19 15:57:27;;;;;;;5.13;1.70;;;13.30;99.90;;;;;;10098276;28;20040;-68
2024/02/19 16:02:18;;;;;;;4.18;2.00;;;13.30;99.90;;;;;;10100539;28;20112;-69
2024/02/19 16:07:09;;;;;;;2.47;1.52;;;13.20;99.90;;;;;;10098893;28;20680;-69
2024/02/19 16:12:00;;;;;;;4.63;1.88;;;13.20;99.90;;;;;;10097666;28;20031;-68
2024/02/19 16:16:50;;;;;;;4.38;2.13;;;13.20;99.90;;;;;;10098458;28;20037;-68
2024/02/19 16:21:41;;;;;;;4.40;1.75;;;13.30;99.90;;;;;;10098041;28;20445;-67
2024/02/19 16:26:32;;;;;;;6.82;2.00;;;13.20;99.90;;;;;;10098576;28;20067;-68
2024/02/19 16:31:22;;;;;;;5.00;2.40;;;13.20;99.90;;;;;;10097870;28;20033;-69
2024/02/19 16:36:13;;;;;;;4.68;2.17;;;13.20;99.90;;;;;;10112453;28;20082;-68
2024/02/19 16:41:05;;;;;;;2.15;1.65;;;13.20;99.90;;;;;;10122783;28;20080;-68
2024/02/19 16:45:56;;;;;;;4.45;1.90;;;13.20;99.90;;;;;;10110550;28;20033;-69
2024/02/19 16:50:47;;;;;;;2.67;2.25;;;13.20;99.90;;;;;;10077458;28;20111;-67
2024/02/19 16:55:42;;;;;;;4.57;1.73;;;13.20;99.90;;;;;;10095692;28;20068;-68
2024/02/19 17:00:33;;;;;;;3.35;1.98;;;13.10;99.90;;;;;;10098659;28;20025;-68
2024/02/19 17:05:23;;;;;;;2.22;1.40;;;13.10;99.90;;;;;;10098817;28;20025;-68
2024/02/19 17:10:16;;;;;;;6.00;2.00;;;13.10;99.90;;;;;;10093435;28;20048;-69
2024/02/19 17:15:07;;;;;;;3.38;1.83;;;13.00;99.90;;;;;;10092943;28;20063;-67
2024/02/19 17:19:59;;;;;;;3.63;1.42;;;13.00;99.90;;;;;;10091580;28;20040;-67
2024/02/19 17:24:49;;;;;;;4.45;1.83;;;13.00;99.90;;;;;;10095779;28;20434;-67
2024/02/19 17:29:41;;;;;;;3.33;1.58;;;13.00;99.90;;;;;;10094634;28;20045;-68
2024/02/19 17:34:31;;;;;;;3.63;1.80;;;13.10;99.90;;;;;;10096879;28;20029;-70
2024/02/19 17:39:26;;;;;;;3.00;1.80;;;13.10;99.90;;;;;;10089830;28;20049;-68
2024/02/19 17:44:16;;;;;;;7.60;2.45;;;13.00;99.90;;;;;;10090878;28;20530;-69
2024/02/19 17:49:10;;;;;;;5.18;1.90;;;13.10;99.90;;;;;;10095273;28;20033;-67
2024/02/19 17:54:01;;;;;;;3.15;2.00;;;13.00;99.90;;;;;;10094070;28;20021;-66
2024/02/19 17:58:51;;;;;;;4.05;2.00;;;13.00;99.90;;;;;;10096212;28;20051;-67
2024/02/19 18:03:43;;;;;;;6.07;2.13;;;12.90;99.90;;;;;;10095448;28;20040;-66
2024/02/19 18:08:35;;;;;;;6.95;2.33;;;12.90;99.90;;;;;;10095538;28;20114;-68
2024/02/19 18:13:26;;;;;;;5.45;2.35;;;12.90;99.90;;;;;;10101221;28;20609;-67
2024/02/19 18:18:17;;;;;;;5.43;2.65;;;12.90;99.90;;;;;;10094234;28;20151;-67
2024/02/19 18:23:09;;;;;;;2.80;1.73;;;12.90;99.90;;;;;;10092594;28;20031;-68
2024/02/19 18:28:01;;;;;;;6.65;2.00;;;12.80;99.90;;;;;;10094534;28;20406;-68
2024/02/19 18:32:52;;;;;;;2.70;1.60;;;12.60;99.90;;;;;;10087896;28;20025;-68
2024/02/19 18:37:42;;;;;;;3.22;1.73;;;12.60;99.90;;;;;;10083487;28;20040;-67
2024/02/19 18:42:33;;;;;;;4.38;1.85;;;12.60;99.90;;;;;;10080760;28;20060;-67
2024/02/19 18:47:24;;;;;;;3.05;1.80;;;12.60;99.90;;;;;;10080762;28;20490;-68
2024/02/19 18:52:16;;;;;;;4.38;1.95;;;12.60;99.90;;;;;;10069352;28;20029;-67
2024/02/19 18:57:07;;;;;;;5.03;2.40;;;12.50;99.90;;;;;;10092476;28;20441;-68
2024/02/19 19:02:00;;;;;;;5.70;1.73;;;12.60;99.90;;;;;;10088321;28;20040;-67
2024/02/19 19:06:51;;;;;;;3.38;1.98;;;12.60;99.90;;;;;;10097271;28;20021;-67
2024/02/19 19:11:41;;;;;;;3.78;1.80;;;12.60;99.90;;;;;;10093445;28;20025;-68
2024/02/19 19:16:32;;;;;;;2.83;1.80;;;12.60;99.90;;;;;;10082189;28;20048;-68
2024/02/19 19:21:23;;;;;;;3.50;2.20;;;12.70;99.90;;;;;;10096349;28;20037;-68
2024/02/19 19:26:13;;;;;;;5.00;2.15;;;12.60;99.90;;;;;;10100445;28;20284;-71
2024/02/19 19:31:04;;;;;;;4.35;2.08;;;12.60;99.90;;;;;;10099721;28;20079;-70
2024/02/19 19:35:55;;;;;;;3.53;2.45;;;12.60;99.90;;;;;;10092740;28;20108;-69
2024/02/19 19:40:46;;;;;;;3.90;1.83;;;12.60;99.90;;;;;;10096296;28;20029;-72
2024/02/19 19:45:36;;;;;;;3.53;1.73;;;12.50;99.90;;;;;;10094270;28;20037;-72
2024/02/19 19:50:28;;;;;;;2.88;1.70;;;12.50;99.90;;;;;;10097246;28;20120;-73
2024/02/19 19:55:18;;;;;;;4.25;1.90;;;12.40;99.90;;;;;;10077002;28;20033;-72
2024/02/19 20:00:10;;;;;;;3.25;1.52;;;12.40;99.90;;;;;;10097589;28;20040;-72
2024/02/19 20:05:01;;;;;;;3.28;1.55;;;12.40;99.90;;;;;;10099629;28;20089;-72
2024/02/19 20:09:51;;;;;;;3.55;1.60;;;12.40;99.90;;;;;;10068808;28;20025;-73
2024/02/19 20:14:42;;;;;;;4.80;1.75;;;12.30;99.90;;;;;;10075425;28;20041;-73
2024/02/19 20:19:39;;;;;;;2.30;1.60;;;12.30;99.90;;;;;;10088936;28;20458;-72
2024/02/19 20:24:30;;;;;;;2.63;1.40;;;12.30;99.90;;;;;;10075346;28;20017;-70
2024/02/19 20:29:21;;;;;;;3.75;1.67;;;12.30;99.90;;;;;;10091575;28;20445;-70
2024/02/19 20:34:12;;;;;;;2.30;1.20;;;12.20;99.90;;;;;;10094520;28;20059;-68
2024/02/19 20:39:04;;;;;;;2.50;1.23;;;12.20;99.90;;;;;;10082422;28;20419;-70
2024/02/19 20:43:55;;;;;;;1.83;1.30;;;12.20;99.90;;;;;;10095721;28;20032;-70
2024/02/19 20:48:49;;;;;;;1.90;1.25;;;12.30;99.90;;;;;;10098925;28;20033;-71
2024/02/19 20:53:39;;;;;;;3.42;1.15;;;12.20;99.90;;;;;;10096449;28;20028;-69
2024/02/19 20:58:30;;;;;;;1.92;1.08;;;12.20;99.90;;;;;;10089642;28;20518;-72
2024/02/19 21:03:22;;;;;;;1.40;1.15;;;12.20;99.90;;;;;;10097509;28;20040;-69
2024/02/19 21:08:13;;;;;;;2.70;1.52;;;12.30;99.90;;;;;;10090836;28;20049;-69
2024/02/19 21:13:04;;;;;;;4.20;1.83;;;12.40;99.90;;;;;;10090771;28;20021;-67
2024/02/19 21:17:55;;;;;;;3.05;1.50;;;12.30;99.90;;;;;;10093967;28;20041;-68
2024/02/19 21:22:45;;;;;;;3.10;1.15;;;12.30;99.90;;;;;;10092239;28;20410;-69
2024/02/19 21:27:36;;;;;;;4.88;1.48;;;12.20;99.90;;;;;;10093478;28;20102;-71
2024/02/19 21:32:28;;;;;;;4.07;1.42;;;12.20;99.90;;;;;;10082585;28;20062;-67
2024/02/19 21:37:23;;;;;;;3.10;1.50;;;12.30;99.90;;;;;;10090040;28;20132;-69
2024/02/19 21:42:14;;;;;;;2.10;1.50;;;12.30;99.90;;;;;;10068563;28;20061;-68
2024/02/19 21:47:04;;;;;;;2.45;1.48;;;12.20;99.90;;;;;;10086602;28;20359;-69
2024/02/19 21:51:55;;;;;;;2.80;1.30;;;12.20;99.90;;;;;;10085715;28;20029;-69
2024/02/19 21:56:46;;;;;;;2.08;1.27;;;12.20;99.90;;;;;;10090305;28;20037;-66
2024/02/19 22:01:37;;;;;;;3.58;1.80;;;12.20;99.90;;;;;;10081557;28;20067;-65
2024/02/19 22:06:30;;;;;;;1.85;1.40;;;12.30;99.90;;;;;;10093355;28;20059;-67
2024/02/19 22:11:21;;;;;;;3.90;1.85;;;12.20;99.90;;;;;;10072265;28;20545;-69
2024/02/19 22:16:11;;;;;;;3.55;1.63;;;12.10;99.90;;;;;;10091883;28;20032;-68
2024/02/19 22:21:03;;;;;;;1.88;1.30;;;12.10;99.90;;;;;;10093573;28;20043;-67
2024/02/19 22:25:55;;;;;;;2.45;1.45;;;12.00;99.90;;;;;;10083160;28;20541;-67
2024/02/19 22:30:45;;;;;;;1.52;1.02;;;12.00;99.90;;;;;;10101721;28;20033;-66
2024/02/19 22:35:36;;;;;;;2.72;1.50;;;11.90;99.90;;;;;;10093963;28;20502;-71
2024/02/19 22:40:28;;;;;;;3.53;1.45;;;12.00;99.90;;;;;;10084406;28;20049;-71
2024/02/19 22:45:24;;;;;;;1.77;1.27;;;11.90;99.90;;;;;;10101799;28;20033;-70
2024/02/19 22:50:14;;;;;;;1.98;1.08;;;11.90;99.90;;;;;;10083849;28;20124;-70
2024/02/19 22:55:06;;;;;;;1.65;1.20;;;11.90;99.90;;;;;;10096472;28;20096;-68
2024/02/19 22:59:57;;;;;;;3.95;1.13;;;11.90;99.90;;;;;;10101515;28;20047;-67
2024/02/19 23:04:48;;;;;;;1.38;1.05;;;11.90;99.90;;;;;;10093753;28;20039;-67
2024/02/19 23:09:40;;;;;;;2.05;1.05;;;11.80;99.90;;;;;;10100625;28;20029;-66
2024/02/19 23:14:31;;;;;;;1.20;0.82;;;11.80;99.90;;;;;;10101790;28;20067;-67
2024/02/19 23:19:21;;;;;;;2.22;1.10;;;11.70;99.90;;;;;;10095222;28;20080;-67
2024/02/19 23:24:12;;;;;;;1.30;1.00;;;11.80;99.90;;;;;;10099288;28;20021;-69
2024/02/19 23:29:03;;;;;;;1.70;0.88;;;11.80;99.90;;;;;;10100489;28;20537;-68
2024/02/19 23:33:54;;;;;;;1.27;0.90;;;11.80;99.90;;;;;;10098764;28;20093;-68
2024/02/19 23:38:44;;;;;;;1.20;0.85;;;11.80;99.90;;;;;;10089451;28;20164;-68
2024/02/19 23:43:36;;;;;;;1.23;0.77;;;11.80;99.90;;;;;;10082673;28;20059;-68
2024/02/19 23:48:27;;;;;;;1.27;0.77;;;11.70;99.90;;;;;;10099815;28;20025;-67
2024/02/19 23:53:19;;;;;;;1.17;0.75;;;11.70;99.90;;;;;;10099226;28;20029;-67
2024/02/19 23:58:10;;;;;;;1.52;0.90;;;11.70;99.90;;;;;;10099711;28;20040;-66
